Seneimaru — JG5357 — position and weather

sailwx.info

Track history (hours):
 
Tides and Currents Weather Stations Pressure Air Temp Water Temp Dewpoint Dewpoint Depression Visibility Wind Speed Wind Dir Waves Ship Positions

Seneimaru

Last reported at 2015-Aug-28 04:23 UTC. Time now 2015-Aug-28 09:30 UTC.
Position N 34°54' E 139°45'.

Length 72 m; draft 5.9 m.

Type: Cargo ship. MMSI: 431100477.

Date/timePositionNaut miles runAvg speedWind from/ knotsBaromVisibWave heightAir tempDewpointWater temp
2015-Aug-28 04:23N 34°54' E 139°45'910.4
2015-Aug-28 03:33N 35°03' E 139°44'1211.8
2015-Aug-28 02:33N 35°14' E 139°46'1010.4
2015-Aug-28 01:33N 35°24' E 139°43'5 5.4
2015-Aug-28 00:33N 35°30' E 139°43'1 0.7
2015-Aug-27 23:32N 35°30' E 139°43'0 0.0
2015-Aug-27 22:32N 35°30' E 139°43'0 0.0
2015-Aug-27 21:32N 35°30' E 139°43'0 0.0
2015-Aug-27 20:32N 35°30' E 139°43'1 1.4
2015-Aug-27 19:33N 35°29' E 139°42'6 5.4
2015-Aug-27 18:31N 35°23' E 139°44'0 0.0
2015-Aug-27 17:31N 35°24' E 139°44'0 0.1
2015-Aug-27 16:31N 35°24' E 139°44'0 0.0
2015-Aug-27 15:31N 35°24' E 139°44'8 7.9
2015-Aug-27 14:34N 35°16' E 139°46'1010.2
2015-Aug-27 13:34N 35°06' E 139°45'1010.1
2015-Aug-27 12:33N 34°56' E 139°45'8 0.2
2015-Aug-26 02:15N 34°48' E 139°49'810.2
2015-Aug-26 01:29N 34°55' E 139°45'1011.0
2015-Aug-26 00:33N 35°05' E 139°45'1111.3
2015-Aug-25 23:33N 35°17' E 139°45'6 5.7
2015-Aug-25 22:32N 35°22' E 139°44'0 0.0
2015-Aug-25 21:29N 35°22' E 139°44'0 0.0
2015-Aug-25 20:32N 35°22' E 139°44'0 0.1
2015-Aug-25 19:32N 35°22' E 139°44'0 0.0
2015-Aug-25 18:32N 35°22' E 139°44'0 0.0
2015-Aug-25 17:32N 35°22' E 139°44'0 0.0
2015-Aug-25 16:32N 35°22' E 139°44'0 0.0
2015-Aug-25 15:29N 35°22' E 139°44'0 0.0
2015-Aug-25 14:32N 35°22' E 139°44'0 0.0
2015-Aug-25 13:32N 35°22' E 139°44'0 0.0
2015-Aug-25 12:32N 35°22' E 139°44'0 0.0
2015-Aug-25 11:32N 35°22' E 139°44'0 0.0
2015-Aug-25 10:32N 35°22' E 139°44'0 0.0
2015-Aug-25 09:32N 35°22' E 139°44'0 0.0
2015-Aug-25 08:32N 35°22' E 139°44'0 0.0
2015-Aug-25 07:32N 35°22' E 139°44'0 0.0
2015-Aug-25 06:29N 35°22' E 139°44'0 0.0
2015-Aug-25 05:32N 35°22' E 139°44'0 0.0
2015-Aug-25 04:32N 35°22' E 139°44'0 0.0
2015-Aug-25 03:32N 35°22' E 139°44'0 0.0
2015-Aug-25 02:32N 35°22' E 139°44'0 0.0
2015-Aug-25 01:32N 35°22' E 139°44'0 0.0
2015-Aug-25 00:32N 35°22' E 139°44'0 0.0
2015-Aug-24 23:32N 35°22' E 139°44'0 0.0
2015-Aug-24 22:29N 35°22' E 139°44'0 0.0
2015-Aug-24 21:32N 35°22' E 139°44'0 0.0
2015-Aug-24 20:32N 35°22' E 139°44'0 0.0
2015-Aug-24 19:32N 35°22' E 139°44'0 0.0
2015-Aug-24 18:32N 35°22' E 139°44'0 0.0
2015-Aug-24 17:32N 35°22' E 139°44'0 0.0
2015-Aug-24 16:32N 35°22' E 139°44'0 0.0
2015-Aug-24 15:32N 35°22' E 139°44'0 0.0
2015-Aug-24 14:32N 35°22' E 139°44'0 0.0
2015-Aug-24 13:32N 35°22' E 139°44'0 0.0
2015-Aug-24 12:32N 35°22' E 139°44'0 0.0
2015-Aug-24 11:32N 35°22' E 139°44'0 0.0
2015-Aug-24 10:29N 35°22' E 139°44'0 0.0
2015-Aug-24 09:32N 35°22' E 139°44'0 0.0
2015-Aug-24 08:32N 35°22' E 139°44'0 0.0
2015-Aug-24 07:32N 35°22' E 139°44'0 0.0
2015-Aug-24 06:32N 35°22' E 139°44'0 0.0
2015-Aug-24 05:32N 35°22' E 139°44'0 0.0
2015-Aug-24 04:29N 35°22' E 139°44'0 0.0
2015-Aug-24 03:32N 35°22' E 139°44'0 0.0
2015-Aug-24 02:32N 35°22' E 139°44'0 0.0
2015-Aug-24 01:32N 35°22' E 139°44'0 0.0
2015-Aug-24 00:32N 35°22' E 139°44'0 0.0
2015-Aug-23 23:32N 35°22' E 139°44'0 0.0
2015-Aug-23 22:32N 35°22' E 139°44'0 0.0
2015-Aug-23 21:32N 35°22' E 139°44'0 0.0
2015-Aug-23 20:32N 35°22' E 139°44'0 0.0
2015-Aug-23 19:32N 35°22' E 139°44'0 0.0
2015-Aug-23 18:32N 35°22' E 139°44'0 0.0
2015-Aug-23 17:32N 35°22' E 139°44'0 0.0
2015-Aug-23 16:29N 35°22' E 139°44'0 0.0
2015-Aug-23 15:32N 35°22' E 139°44'0 0.0
2015-Aug-23 14:32N 35°22' E 139°44'0 0.0
2015-Aug-23 13:32N 35°22' E 139°44'0 0.0
2015-Aug-23 12:32N 35°22' E 139°44'0 0.0
2015-Aug-23 11:32N 35°22' E 139°44'0 0.0
2015-Aug-23 10:32N 35°22' E 139°44'0 0.0
2015-Aug-23 09:29N 35°22' E 139°44'0 0.0
2015-Aug-23 08:32N 35°22' E 139°44'0 0.0
2015-Aug-23 07:32N 35°22' E 139°44'0 0.0
2015-Aug-23 06:32N 35°22' E 139°44'0 0.0
2015-Aug-23 05:32N 35°22' E 139°44'0 0.0
2015-Aug-23 04:29N 35°22' E 139°44'0 0.0
2015-Aug-23 03:32N 35°22' E 139°44'0 0.0
2015-Aug-23 02:32N 35°22' E 139°44'0 0.0
2015-Aug-23 01:32N 35°22' E 139°44'0 0.0
2015-Aug-23 00:32N 35°22' E 139°44'0 0.0
2015-Aug-22 23:32N 35°22' E 139°44'0 0.0
2015-Aug-22 22:32N 35°22' E 139°44'0 0.0
2015-Aug-22 21:32N 35°22' E 139°44'0 0.1
2015-Aug-22 20:32N 35°22' E 139°44'0 0.1
2015-Aug-22 19:32N 35°22' E 139°44'0 0.0
2015-Aug-22 18:32N 35°22' E 139°44'0 0.0
2015-Aug-22 17:32N 35°22' E 139°44'0 0.0
2015-Aug-22 16:32N 35°22' E 139°44'0 0.0
2015-Aug-22 15:32N 35°22' E 139°44'0 0.0
2015-Aug-22 14:32N 35°22' E 139°44'0 0.0
2015-Aug-22 13:32N 35°22' E 139°44'0 0.0
2015-Aug-22 12:32N 35°22' E 139°44'0 0.0
2015-Aug-22 11:32N 35°22' E 139°44'0 0.0
2015-Aug-22 10:32N 35°22' E 139°44'0 0.0
2015-Aug-22 09:32N 35°22' E 139°44'0 0.0
2015-Aug-22 08:32N 35°22' E 139°44'0 0.0
2015-Aug-22 07:32N 35°22' E 139°44'0 0.0
2015-Aug-22 06:32N 35°22' E 139°44'0 0.1
2015-Aug-22 05:32N 35°22' E 139°44'0 0.0
2015-Aug-22 04:32N 35°22' E 139°44'0 0.0
2015-Aug-22 03:32N 35°22' E 139°44'0 0.0
2015-Aug-22 02:29N 35°22' E 139°44'0 0.0
2015-Aug-22 01:32N 35°22' E 139°44'3 2.6
2015-Aug-22 00:33N 35°24' E 139°45'6 5.5
2015-Aug-21 23:33N 35°30' E 139°43'1 0.5
2015-Aug-21 22:33N 35°30' E 139°43'0 0.0
2015-Aug-21 21:33N 35°30' E 139°43'0 0.0
2015-Aug-21 20:33N 35°30' E 139°43'0 0.0
2015-Aug-21 19:33N 35°30' E 139°43'0 0.0
2015-Aug-21 18:33N 35°30' E 139°43'0 0.0
2015-Aug-21 17:33N 35°30' E 139°43'0 0.0
2015-Aug-21 16:33N 35°30' E 139°43'0 0.0
2015-Aug-21 15:33N 35°30' E 139°43'0 0.0
2015-Aug-21 14:33N 35°30' E 139°43'0 0.0
2015-Aug-21 13:33N 35°30' E 139°43'0 0.0
2015-Aug-21 12:33N 35°30' E 139°43'0 0.0
2015-Aug-21 11:33N 35°30' E 139°43'0 0.0
2015-Aug-21 10:33N 35°30' E 139°43'0 0.0
2015-Aug-21 09:33N 35°30' E 139°43'0 0.0
2015-Aug-21 08:33N 35°30' E 139°43'0 0.0
2015-Aug-21 07:33N 35°30' E 139°43'0 0.0
2015-Aug-21 06:33N 35°30' E 139°43'0 0.0
2015-Aug-21 05:33N 35°30' E 139°43'0 0.0
2015-Aug-21 04:33N 35°30' E 139°43'0 0.0
2015-Aug-21 03:33N 35°30' E 139°43'0 0.0
2015-Aug-21 02:33N 35°30' E 139°43'0 0.0
2015-Aug-21 01:33N 35°30' E 139°43'0 0.0
2015-Aug-21 00:33N 35°30' E 139°43'0 0.0
2015-Aug-20 23:33N 35°30' E 139°43'0 0.2
2015-Aug-20 22:33N 35°30' E 139°43'3 3.2
2015-Aug-20 21:33N 35°27' E 139°44'5 5.0
2015-Aug-20 20:33N 35°22' E 139°45'1110.5
2015-Aug-20 19:33N 35°11' E 139°47'1111.0
2015-Aug-20 18:33N 35°01' E 139°44'9 0.3
2015-Aug-19 10:13N 34°52' E 139°47'811.7
2015-Aug-19 09:33N 34°59' E 139°43'1111.0
2015-Aug-19 08:33N 35°10' E 139°46'10 9.7
2015-Aug-19 07:33N 35°19' E 139°43'1010.1
2015-Aug-19 06:33N 35°29' E 139°47'4 3.9
2015-Aug-19 05:33N 35°30' E 139°43'0 0.0
2015-Aug-19 04:33N 35°30' E 139°43'0 0.0
2015-Aug-19 03:33N 35°30' E 139°43'0 0.0
2015-Aug-19 02:33N 35°30' E 139°43'0 0.0
2015-Aug-19 01:33N 35°30' E 139°43'0 0.0
2015-Aug-19 00:33N 35°30' E 139°43'0 0.0
2015-Aug-18 23:33N 35°30' E 139°43'0 0.0
2015-Aug-18 22:33N 35°30' E 139°43'1 1.1
2015-Aug-18 21:33N 35°29' E 139°42'6 6.2
2015-Aug-18 20:33N 35°23' E 139°44'0 0.0
2015-Aug-18 19:33N 35°23' E 139°44'4 4.1
2015-Aug-18 18:33N 35°19' E 139°44'1111.3
2015-Aug-18 17:33N 35°08' E 139°46'1110.6
2015-Aug-18 16:33N 34°57' E 139°44'  
Track history (hours):
 
Tides and Currents Weather Stations Pressure Air Temp Water Temp Dewpoint Dewpoint Depression Visibility Wind Speed Wind Dir Waves Ship Positions

Seneimaru

Last reported at 2015-Aug-28 04:23 UTC. Time now 2015-Aug-28 09:30 UTC.
Position N 34°54' E 139°45'.

Length 72 m; draft 5.9 m.

Type: Cargo ship. MMSI: 431100477.

Date/timePositionNaut miles runAvg speedWind from/ knotsBaromVisibWave heightAir tempDewpointWater temp
2015-Aug-28 04:23N 34°54' E 139°45'910.4
2015-Aug-28 03:33N 35°03' E 139°44'1211.8
2015-Aug-28 02:33N 35°14' E 139°46'1010.4
2015-Aug-28 01:33N 35°24' E 139°43'5 5.4
2015-Aug-28 00:33N 35°30' E 139°43'1 0.7
2015-Aug-27 23:32N 35°30' E 139°43'0 0.0
2015-Aug-27 22:32N 35°30' E 139°43'0 0.0
2015-Aug-27 21:32N 35°30' E 139°43'0 0.0
2015-Aug-27 20:32N 35°30' E 139°43'1 1.4
2015-Aug-27 19:33N 35°29' E 139°42'6 5.4
2015-Aug-27 18:31N 35°23' E 139°44'0 0.0
2015-Aug-27 17:31N 35°24' E 139°44'0 0.1
2015-Aug-27 16:31N 35°24' E 139°44'0 0.0
2015-Aug-27 15:31N 35°24' E 139°44'8 7.9
2015-Aug-27 14:34N 35°16' E 139°46'1010.2
2015-Aug-27 13:34N 35°06' E 139°45'1010.1
2015-Aug-27 12:33N 34°56' E 139°45'8 0.2
2015-Aug-26 02:15N 34°48' E 139°49'810.2
2015-Aug-26 01:29N 34°55' E 139°45'1011.0
2015-Aug-26 00:33N 35°05' E 139°45'1111.3
2015-Aug-25 23:33N 35°17' E 139°45'6 5.7
2015-Aug-25 22:32N 35°22' E 139°44'0 0.0
2015-Aug-25 21:29N 35°22' E 139°44'0 0.0
2015-Aug-25 20:32N 35°22' E 139°44'0 0.1
2015-Aug-25 19:32N 35°22' E 139°44'0 0.0
2015-Aug-25 18:32N 35°22' E 139°44'0 0.0
2015-Aug-25 17:32N 35°22' E 139°44'0 0.0
2015-Aug-25 16:32N 35°22' E 139°44'0 0.0
2015-Aug-25 15:29N 35°22' E 139°44'0 0.0
2015-Aug-25 14:32N 35°22' E 139°44'0 0.0
2015-Aug-25 13:32N 35°22' E 139°44'0 0.0
2015-Aug-25 12:32N 35°22' E 139°44'0 0.0
2015-Aug-25 11:32N 35°22' E 139°44'0 0.0
2015-Aug-25 10:32N 35°22' E 139°44'0 0.0
2015-Aug-25 09:32N 35°22' E 139°44'0 0.0
2015-Aug-25 08:32N 35°22' E 139°44'0 0.0
2015-Aug-25 07:32N 35°22' E 139°44'0 0.0
2015-Aug-25 06:29N 35°22' E 139°44'0 0.0
2015-Aug-25 05:32N 35°22' E 139°44'0 0.0
2015-Aug-25 04:32N 35°22' E 139°44'0 0.0
2015-Aug-25 03:32N 35°22' E 139°44'0 0.0
2015-Aug-25 02:32N 35°22' E 139°44'0 0.0
2015-Aug-25 01:32N 35°22' E 139°44'0 0.0
2015-Aug-25 00:32N 35°22' E 139°44'0 0.0
2015-Aug-24 23:32N 35°22' E 139°44'0 0.0
2015-Aug-24 22:29N 35°22' E 139°44'0 0.0
2015-Aug-24 21:32N 35°22' E 139°44'0 0.0
2015-Aug-24 20:32N 35°22' E 139°44'0 0.0
2015-Aug-24 19:32N 35°22' E 139°44'0 0.0
2015-Aug-24 18:32N 35°22' E 139°44'0 0.0
2015-Aug-24 17:32N 35°22' E 139°44'0 0.0
2015-Aug-24 16:32N 35°22' E 139°44'0 0.0
2015-Aug-24 15:32N 35°22' E 139°44'0 0.0
2015-Aug-24 14:32N 35°22' E 139°44'0 0.0
2015-Aug-24 13:32N 35°22' E 139°44'0 0.0
2015-Aug-24 12:32N 35°22' E 139°44'0 0.0
2015-Aug-24 11:32N 35°22' E 139°44'0 0.0
2015-Aug-24 10:29N 35°22' E 139°44'0 0.0
2015-Aug-24 09:32N 35°22' E 139°44'0 0.0
2015-Aug-24 08:32N 35°22' E 139°44'0 0.0
2015-Aug-24 07:32N 35°22' E 139°44'0 0.0
2015-Aug-24 06:32N 35°22' E 139°44'0 0.0
2015-Aug-24 05:32N 35°22' E 139°44'0 0.0
2015-Aug-24 04:29N 35°22' E 139°44'0 0.0
2015-Aug-24 03:32N 35°22' E 139°44'0 0.0
2015-Aug-24 02:32N 35°22' E 139°44'0 0.0
2015-Aug-24 01:32N 35°22' E 139°44'0 0.0
2015-Aug-24 00:32N 35°22' E 139°44'0 0.0
2015-Aug-23 23:32N 35°22' E 139°44'0 0.0
2015-Aug-23 22:32N 35°22' E 139°44'0 0.0
2015-Aug-23 21:32N 35°22' E 139°44'0 0.0
2015-Aug-23 20:32N 35°22' E 139°44'0 0.0
2015-Aug-23 19:32N 35°22' E 139°44'0 0.0
2015-Aug-23 18:32N 35°22' E 139°44'0 0.0
2015-Aug-23 17:32N 35°22' E 139°44'0 0.0
2015-Aug-23 16:29N 35°22' E 139°44'0 0.0
2015-Aug-23 15:32N 35°22' E 139°44'0 0.0
2015-Aug-23 14:32N 35°22' E 139°44'0 0.0
2015-Aug-23 13:32N 35°22' E 139°44'0 0.0
2015-Aug-23 12:32N 35°22' E 139°44'0 0.0
2015-Aug-23 11:32N 35°22' E 139°44'0 0.0
2015-Aug-23 10:32N 35°22' E 139°44'0 0.0
2015-Aug-23 09:29N 35°22' E 139°44'0 0.0
2015-Aug-23 08:32N 35°22' E 139°44'0 0.0
2015-Aug-23 07:32N 35°22' E 139°44'0 0.0
2015-Aug-23 06:32N 35°22' E 139°44'0 0.0
2015-Aug-23 05:32N 35°22' E 139°44'0 0.0
2015-Aug-23 04:29N 35°22' E 139°44'0 0.0
2015-Aug-23 03:32N 35°22' E 139°44'0 0.0
2015-Aug-23 02:32N 35°22' E 139°44'0 0.0
2015-Aug-23 01:32N 35°22' E 139°44'0 0.0
2015-Aug-23 00:32N 35°22' E 139°44'0 0.0
2015-Aug-22 23:32N 35°22' E 139°44'0 0.0
2015-Aug-22 22:32N 35°22' E 139°44'0 0.0
2015-Aug-22 21:32N 35°22' E 139°44'0 0.1
2015-Aug-22 20:32N 35°22' E 139°44'0 0.1
2015-Aug-22 19:32N 35°22' E 139°44'0 0.0
2015-Aug-22 18:32N 35°22' E 139°44'0 0.0
2015-Aug-22 17:32N 35°22' E 139°44'0 0.0
2015-Aug-22 16:32N 35°22' E 139°44'0 0.0
2015-Aug-22 15:32N 35°22' E 139°44'0 0.0
2015-Aug-22 14:32N 35°22' E 139°44'0 0.0
2015-Aug-22 13:32N 35°22' E 139°44'0 0.0
2015-Aug-22 12:32N 35°22' E 139°44'0 0.0
2015-Aug-22 11:32N 35°22' E 139°44'0 0.0
2015-Aug-22 10:32N 35°22' E 139°44'0 0.0
2015-Aug-22 09:32N 35°22' E 139°44'0 0.0
2015-Aug-22 08:32N 35°22' E 139°44'0 0.0
2015-Aug-22 07:32N 35°22' E 139°44'0 0.0
2015-Aug-22 06:32N 35°22' E 139°44'0 0.1
2015-Aug-22 05:32N 35°22' E 139°44'0 0.0
2015-Aug-22 04:32N 35°22' E 139°44'0 0.0
2015-Aug-22 03:32N 35°22' E 139°44'0 0.0
2015-Aug-22 02:29N 35°22' E 139°44'0 0.0
2015-Aug-22 01:32N 35°22' E 139°44'3 2.6
2015-Aug-22 00:33N 35°24' E 139°45'6 5.5
2015-Aug-21 23:33N 35°30' E 139°43'1 0.5
2015-Aug-21 22:33N 35°30' E 139°43'0 0.0
2015-Aug-21 21:33N 35°30' E 139°43'0 0.0
2015-Aug-21 20:33N 35°30' E 139°43'0 0.0
2015-Aug-21 19:33N 35°30' E 139°43'0 0.0
2015-Aug-21 18:33N 35°30' E 139°43'0 0.0
2015-Aug-21 17:33N 35°30' E 139°43'0 0.0
2015-Aug-21 16:33N 35°30' E 139°43'0 0.0
2015-Aug-21 15:33N 35°30' E 139°43'0 0.0
2015-Aug-21 14:33N 35°30' E 139°43'0 0.0
2015-Aug-21 13:33N 35°30' E 139°43'0 0.0
2015-Aug-21 12:33N 35°30' E 139°43'0 0.0
2015-Aug-21 11:33N 35°30' E 139°43'0 0.0
2015-Aug-21 10:33N 35°30' E 139°43'0 0.0
2015-Aug-21 09:33N 35°30' E 139°43'0 0.0
2015-Aug-21 08:33N 35°30' E 139°43'0 0.0
2015-Aug-21 07:33N 35°30' E 139°43'0 0.0
2015-Aug-21 06:33N 35°30' E 139°43'0 0.0
2015-Aug-21 05:33N 35°30' E 139°43'0 0.0
2015-Aug-21 04:33N 35°30' E 139°43'0 0.0
2015-Aug-21 03:33N 35°30' E 139°43'0 0.0
2015-Aug-21 02:33N 35°30' E 139°43'0 0.0
2015-Aug-21 01:33N 35°30' E 139°43'0 0.0
2015-Aug-21 00:33N 35°30' E 139°43'0 0.0
2015-Aug-20 23:33N 35°30' E 139°43'0 0.2
2015-Aug-20 22:33N 35°30' E 139°43'3 3.2
2015-Aug-20 21:33N 35°27' E 139°44'5 5.0
2015-Aug-20 20:33N 35°22' E 139°45'1110.5
2015-Aug-20 19:33N 35°11' E 139°47'1111.0
2015-Aug-20 18:33N 35°01' E 139°44'9 0.3
2015-Aug-19 10:13N 34°52' E 139°47'811.7
2015-Aug-19 09:33N 34°59' E 139°43'1111.0
2015-Aug-19 08:33N 35°10' E 139°46'10 9.7
2015-Aug-19 07:33N 35°19' E 139°43'1010.1
2015-Aug-19 06:33N 35°29' E 139°47'4 3.9
2015-Aug-19 05:33N 35°30' E 139°43'0 0.0
2015-Aug-19 04:33N 35°30' E 139°43'0 0.0
2015-Aug-19 03:33N 35°30' E 139°43'0 0.0
2015-Aug-19 02:33N 35°30' E 139°43'0 0.0
2015-Aug-19 01:33N 35°30' E 139°43'0 0.0
2015-Aug-19 00:33N 35°30' E 139°43'0 0.0
2015-Aug-18 23:33N 35°30' E 139°43'0 0.0
2015-Aug-18 22:33N 35°30' E 139°43'1 1.1
2015-Aug-18 21:33N 35°29' E 139°42'6 6.2
2015-Aug-18 20:33N 35°23' E 139°44'0 0.0
2015-Aug-18 19:33N 35°23' E 139°44'4 4.1
2015-Aug-18 18:33N 35°19' E 139°44'1111.3
2015-Aug-18 17:33N 35°08' E 139°46'1110.6
2015-Aug-18 16:33N 34°57' E 139°44'  

Dump ship's entire track history